createdAt,value
2023-01-18T00:00:14.251Z,23.90
2023-01-18T00:02:48.461Z,23.90
2023-01-18T00:05:21.418Z,24.00
2023-01-18T00:07:54.453Z,24.00
2023-01-18T00:10:27.148Z,24.00
2023-01-18T00:13:01.219Z,24.10
2023-01-18T00:15:35.407Z,24.10
2023-01-18T00:18:08.525Z,24.00
2023-01-18T00:20:41.376Z,24.00
2023-01-18T00:23:14.295Z,23.80
2023-01-18T00:25:47.251Z,23.70
2023-01-18T00:28:21.599Z,23.70
2023-01-18T00:30:54.341Z,23.60
2023-01-18T00:33:30.610Z,23.60
2023-01-18T00:36:05.291Z,23.60
2023-01-18T00:38:38.069Z,23.50
2023-01-18T00:41:10.806Z,23.50
2023-01-18T00:43:44.429Z,23.50
2023-01-18T00:46:19.732Z,23.50
2023-01-18T00:48:52.669Z,23.50
2023-01-18T00:51:27.019Z,23.50
2023-01-18T00:53:59.867Z,23.50
2023-01-18T00:56:32.713Z,23.50
2023-01-18T00:59:05.524Z,23.40
2023-01-18T01:01:38.366Z,23.40
2023-01-18T01:04:28.269Z,23.40
2023-01-18T01:07:01.222Z,23.40
2023-01-18T01:09:34.817Z,23.40
2023-01-18T01:12:27.891Z,23.40
2023-01-18T01:15:18.238Z,23.40
2023-01-18T01:18:08.904Z,23.30
2023-01-18T01:20:59.536Z,23.20
2023-01-18T01:23:49.886Z,23.20
2023-01-18T01:26:22.883Z,23.20
2023-01-18T01:28:56.593Z,23.20
2023-01-18T01:31:29.915Z,23.30
2023-01-18T01:34:02.817Z,23.30
2023-01-18T01:36:39.773Z,23.30
2023-01-18T01:39:17.135Z,23.30
2023-01-18T01:41:50.163Z,23.40
2023-01-18T01:44:29.028Z,23.40
2023-01-18T01:47:18.857Z,23.50
2023-01-18T01:49:54.353Z,23.50
2023-01-18T01:52:29.434Z,23.50
2023-01-18T01:55:13.120Z,23.50
2023-01-18T01:57:53.827Z,23.40
2023-01-18T02:00:27.429Z,23.30
2023-01-18T02:03:02.352Z,23.30
2023-01-18T02:05:36.896Z,23.20
2023-01-18T02:08:11.688Z,23.20
2023-01-18T02:10:44.494Z,23.20
2023-01-18T02:13:18.244Z,23.20
2023-01-18T02:15:55.925Z,23.20
2023-01-18T02:18:42.213Z,23.20
2023-01-18T02:21:23.043Z,23.20
2023-01-18T02:23:58.060Z,23.20
2023-01-18T02:26:49.694Z,23.20
2023-01-18T02:29:27.514Z,23.20
2023-01-18T02:32:29.704Z,23.20
2023-01-18T02:35:17.139Z,23.20
2023-01-18T02:38:04.288Z,23.20
2023-01-18T02:40:55.971Z,23.20
2023-01-18T02:43:47.522Z,23.20
2023-01-18T02:46:40.499Z,23.10
2023-01-18T02:49:16.026Z,23.10
2023-01-18T02:51:49.023Z,23.00
2023-01-18T02:54:23.066Z,23.00
2023-01-18T02:56:57.495Z,23.00
2023-01-18T02:59:40.480Z,23.00
2023-01-18T03:02:21.270Z,23.00
2023-01-18T03:04:58.780Z,23.00
2023-01-18T03:07:36.466Z,23.00
2023-01-18T03:10:11.423Z,23.00
2023-01-18T03:12:55.172Z,23.00
2023-01-18T03:15:33.377Z,23.00
2023-01-18T03:18:08.674Z,23.00
2023-01-18T03:20:43.991Z,23.00
2023-01-18T03:23:35.684Z,23.00
2023-01-18T03:26:10.856Z,23.00
2023-01-18T03:29:02.758Z,23.00
2023-01-18T03:32:11.277Z,23.00
2023-01-18T03:34:58.131Z,23.00
2023-01-18T03:37:39.823Z,22.90
2023-01-18T03:40:24.395Z,22.90
2023-01-18T03:43:11.469Z,22.90
2023-01-18T03:45:52.733Z,22.90
2023-01-18T03:48:26.356Z,22.90
2023-01-18T03:51:03.119Z,22.90
2023-01-18T03:53:52.875Z,22.90
2023-01-18T03:56:46.960Z,22.90
2023-01-18T03:59:20.006Z,22.90
2023-01-18T04:01:53.066Z,22.90
2023-01-18T04:04:26.074Z,22.90
2023-01-18T04:06:59.966Z,23.00
2023-01-18T04:09:32.882Z,23.00
2023-01-18T04:12:05.726Z,23.00
2023-01-18T04:14:39.030Z,23.10
2023-01-18T04:17:12.223Z,23.10
2023-01-18T04:19:44.906Z,23.10
2023-01-18T04:22:17.873Z,23.10
2023-01-18T04:24:50.935Z,23.10
2023-01-18T04:27:24.417Z,23.10
2023-01-18T04:29:57.182Z,23.10
2023-01-18T04:32:30.797Z,23.00
2023-01-18T04:35:03.576Z,23.00
2023-01-18T04:37:36.614Z,23.00
2023-01-18T04:40:10.707Z,23.00
2023-01-18T04:42:47.629Z,23.00
2023-01-18T04:45:21.543Z,23.00
2023-01-18T04:47:55.193Z,23.00
2023-01-18T04:50:56.871Z,22.90
2023-01-18T04:53:30.727Z,22.90
2023-01-18T04:56:03.720Z,22.90
2023-01-18T04:58:36.745Z,22.90
2023-01-18T05:01:17.042Z,22.90
2023-01-18T05:03:50.304Z,22.80
2023-01-18T05:06:23.116Z,22.80
2023-01-18T05:08:56.112Z,22.80
2023-01-18T05:11:29.468Z,22.80
2023-01-18T05:14:02.271Z,22.70
2023-01-18T05:16:35.047Z,22.70
2023-01-18T05:19:07.726Z,22.70
2023-01-18T05:21:40.704Z,22.70
2023-01-18T05:24:13.548Z,22.70
2023-01-18T05:26:46.231Z,22.70
2023-01-18T05:29:19.816Z,22.70
2023-01-18T05:31:52.881Z,22.60
2023-01-18T05:34:25.664Z,22.60
2023-01-18T05:36:58.394Z,22.60
2023-01-18T05:39:31.288Z,22.60
2023-01-18T05:42:04.735Z,22.60
2023-01-18T05:44:37.673Z,22.60
2023-01-18T05:47:12.116Z,22.60
2023-01-18T05:49:49.672Z,22.60
2023-01-18T05:52:23.068Z,22.50
2023-01-18T05:54:56.149Z,22.50
2023-01-18T05:57:29.012Z,22.50
2023-01-18T06:00:01.945Z,22.50
2023-01-18T06:02:34.803Z,22.50
2023-01-18T06:05:07.733Z,22.50
2023-01-18T06:07:43.337Z,22.40
2023-01-18T06:10:16.448Z,22.40
2023-01-18T06:12:49.357Z,22.40
2023-01-18T06:15:22.422Z,22.40
2023-01-18T06:17:55.712Z,22.40
2023-01-18T06:20:29.864Z,22.40
2023-01-18T06:23:02.981Z,22.30
2023-01-18T06:25:35.812Z,22.30
2023-01-18T06:28:08.879Z,22.30
2023-01-18T06:30:41.597Z,22.30
2023-01-18T06:33:14.405Z,22.30
2023-01-18T06:35:47.343Z,22.20
2023-01-18T06:38:20.311Z,22.20
2023-01-18T06:40:53.475Z,22.20
2023-01-18T06:43:30.623Z,22.20
2023-01-18T06:46:03.513Z,22.10
2023-01-18T06:48:36.592Z,22.10
2023-01-18T06:51:10.425Z,22.10
2023-01-18T06:53:44.194Z,22.10
2023-01-18T06:56:16.993Z,22.10
2023-01-18T06:58:49.870Z,22.00
2023-01-18T07:01:22.988Z,22.00
2023-01-18T07:03:55.822Z,22.00
2023-01-18T07:06:28.721Z,22.00
2023-01-18T07:09:01.645Z,22.00
2023-01-18T07:11:34.604Z,22.00
2023-01-18T07:14:11.706Z,21.90
2023-01-18T07:16:44.712Z,21.90
2023-01-18T07:19:18.157Z,21.90
2023-01-18T07:21:51.564Z,21.90
2023-01-18T07:24:24.582Z,21.80
2023-01-18T07:26:57.605Z,21.90
2023-01-18T07:29:30.743Z,21.80
2023-01-18T07:32:04.283Z,21.80
2023-01-18T07:34:37.116Z,21.80
2023-01-18T07:37:09.972Z,21.80
2023-01-18T07:39:42.828Z,21.80
2023-01-18T07:42:15.603Z,21.80
2023-01-18T07:44:48.359Z,21.80
2023-01-18T07:47:23.527Z,21.80
2023-01-18T07:49:56.490Z,21.80
2023-01-18T07:52:29.605Z,21.80
2023-01-18T07:55:04.204Z,21.80
2023-01-18T07:57:37.137Z,21.80
2023-01-18T08:00:11.014Z,21.80
2023-01-18T08:02:44.613Z,21.80
2023-01-18T08:05:18.810Z,21.80
2023-01-18T08:07:51.944Z,21.70
2023-01-18T08:10:25.060Z,21.70
2023-01-18T08:12:58.611Z,21.70
2023-01-18T08:15:39.321Z,21.70
2023-01-18T08:18:12.745Z,21.70
2023-01-18T08:20:50.189Z,21.70
2023-01-18T08:23:22.950Z,21.70
2023-01-18T08:25:55.929Z,21.70
2023-01-18T08:28:28.862Z,21.70
2023-01-18T08:31:09.495Z,21.70
2023-01-18T08:33:43.657Z,21.70
2023-01-18T08:36:26.291Z,21.70
2023-01-18T08:38:59.827Z,21.60
2023-01-18T08:41:37.574Z,21.60
2023-01-18T08:44:10.524Z,21.60
2023-01-18T08:46:43.638Z,21.60
2023-01-18T08:49:16.524Z,21.60
2023-01-18T08:51:49.904Z,21.60
2023-01-18T08:54:23.589Z,21.60
2023-01-18T08:56:59.616Z,21.60
2023-01-18T08:59:32.593Z,21.60
2023-01-18T09:02:05.579Z,21.60
2023-01-18T09:04:38.647Z,21.60
2023-01-18T09:07:11.619Z,21.50
2023-01-18T09:09:44.615Z,21.50
2023-01-18T09:12:17.467Z,21.50
2023-01-18T09:14:50.377Z,21.50
2023-01-18T09:17:23.244Z,21.50
2023-01-18T09:19:56.418Z,21.50
2023-01-18T09:22:29.341Z,21.50
2023-01-18T09:25:02.376Z,21.50
2023-01-18T09:27:35.350Z,21.50
2023-01-18T09:30:09.286Z,21.50
2023-01-18T09:32:42.440Z,21.40
2023-01-18T09:35:16.874Z,21.40
2023-01-18T09:37:50.542Z,21.40
2023-01-18T09:40:31.658Z,21.40
2023-01-18T09:43:04.779Z,21.40
2023-01-18T09:45:41.677Z,21.40
2023-01-18T09:48:26.112Z,21.40
2023-01-18T09:51:00.321Z,21.40
2023-01-18T09:53:40.673Z,21.30
2023-01-18T09:56:31.428Z,21.30
2023-01-18T09:59:18.132Z,21.30
2023-01-18T10:01:53.745Z,21.30
2023-01-18T10:04:40.458Z,21.30
2023-01-18T10:07:26.620Z,21.30
2023-01-18T10:10:02.088Z,21.30
2023-01-18T10:12:54.832Z,21.30
2023-01-18T10:15:29.333Z,21.30
2023-01-18T10:18:02.991Z,21.30
2023-01-18T10:20:41.147Z,21.30
2023-01-18T10:23:34.209Z,21.30
2023-01-18T10:26:11.743Z,21.30
2023-01-18T10:28:53.003Z,21.30
2023-01-18T10:31:49.064Z,21.30
2023-01-18T10:34:26.998Z,21.30
2023-01-18T10:37:01.943Z,21.30
2023-01-18T10:39:40.193Z,21.30
2023-01-18T10:42:31.098Z,21.30
2023-01-18T10:45:06.382Z,21.30
2023-01-18T10:47:43.732Z,21.30
2023-01-18T10:50:21.946Z,21.30
2023-01-18T10:52:55.581Z,21.30
2023-01-18T10:55:29.907Z,21.30
2023-01-18T10:58:04.106Z,21.30
2023-01-18T11:00:40.214Z,21.20
2023-01-18T11:03:14.992Z,21.20
2023-01-18T11:05:49.820Z,21.20
2023-01-18T11:08:34.597Z,21.20
2023-01-18T11:11:12.564Z,21.20
2023-01-18T11:13:47.426Z,21.20
2023-01-18T11:16:22.660Z,21.20
2023-01-18T11:19:06.104Z,21.20
2023-01-18T11:21:51.594Z,21.20
2023-01-18T11:24:26.193Z,21.20
2023-01-18T11:27:04.507Z,21.20
2023-01-18T11:29:42.038Z,21.20
2023-01-18T11:32:28.919Z,21.20
2023-01-18T11:35:03.216Z,21.20
2023-01-18T11:37:40.832Z,21.10
2023-01-18T11:40:31.554Z,21.20
2023-01-18T11:43:21.312Z,21.10
2023-01-18T11:46:00.160Z,21.10
2023-01-18T11:48:40.655Z,21.10
2023-01-18T11:51:36.429Z,21.10
2023-01-18T11:54:40.554Z,21.10
2023-01-18T11:57:14.956Z,21.10
2023-01-18T11:59:52.154Z,21.10
2023-01-18T12:02:42.223Z,21.10
2023-01-18T12:05:32.105Z,21.10
2023-01-18T12:08:25.182Z,21.10
2023-01-18T12:11:06.218Z,21.00
2023-01-18T12:13:46.271Z,21.00
2023-01-18T12:16:26.917Z,21.00
2023-01-18T12:19:07.467Z,21.00
2023-01-18T12:22:08.412Z,21.00
2023-01-18T12:24:45.146Z,21.00
2023-01-18T12:27:34.066Z,21.00
2023-01-18T12:30:28.078Z,21.00
2023-01-18T12:33:04.172Z,21.00
2023-01-18T12:36:05.030Z,21.00
2023-01-18T12:38:39.118Z,21.00
2023-01-18T12:41:25.551Z,21.00
2023-01-18T12:44:17.747Z,21.00
2023-01-18T12:47:00.051Z,21.00
2023-01-18T12:49:35.068Z,21.00
2023-01-18T12:52:18.684Z,21.00
2023-01-18T12:54:45.579Z,21.00
2023-01-18T12:57:19.610Z,21.00
2023-01-18T13:00:03.653Z,21.00
2023-01-18T13:02:42.364Z,21.00
2023-01-18T13:05:30.296Z,21.00
2023-01-18T13:08:11.131Z,21.00
2023-01-18T13:10:44.856Z,21.00
2023-01-18T13:13:24.003Z,21.00
2023-01-18T13:16:01.999Z,21.00
2023-01-18T13:18:39.920Z,21.00
2023-01-18T13:21:32.504Z,21.00
2023-01-18T13:24:26.962Z,20.90
2023-01-18T13:27:13.632Z,20.90
2023-01-18T13:29:47.053Z,20.90
2023-01-18T13:32:30.714Z,20.90
2023-01-18T13:35:20.679Z,20.90
2023-01-18T13:37:56.341Z,20.90
2023-01-18T13:40:46.574Z,20.90
2023-01-18T13:43:41.834Z,20.90
2023-01-18T13:46:20.111Z,20.90
2023-01-18T13:49:01.924Z,20.90
2023-01-18T13:51:52.847Z,20.90
2023-01-18T13:54:33.262Z,20.90
2023-01-18T13:57:12.195Z,20.90
2023-01-18T13:59:53.009Z,20.90
2023-01-18T14:02:38.013Z,20.90
2023-01-18T14:05:25.486Z,20.90
2023-01-18T14:07:59.671Z,20.90
2023-01-18T14:10:40.343Z,20.90
2023-01-18T14:13:15.534Z,20.90
2023-01-18T14:15:53.404Z,20.90
2023-01-18T14:18:31.128Z,20.90
2023-01-18T14:21:27.645Z,20.90
2023-01-18T14:24:17.929Z,20.80
2023-01-18T14:26:51.917Z,20.80
2023-01-18T14:29:30.115Z,20.80
2023-01-18T14:32:04.172Z,20.80
2023-01-18T14:34:46.820Z,20.80
2023-01-18T14:37:36.364Z,20.90
2023-01-18T14:40:29.089Z,20.80
2023-01-18T14:43:09.161Z,20.80
2023-01-18T14:45:43.059Z,20.80
2023-01-18T14:48:19.219Z,20.80
2023-01-18T14:50:57.763Z,20.80
2023-01-18T14:53:38.744Z,20.80
2023-01-18T14:56:20.181Z,20.80
2023-01-18T14:59:00.855Z,20.80
2023-01-18T15:01:39.043Z,20.80
2023-01-18T15:04:23.167Z,20.80
2023-01-18T15:07:10.336Z,20.80
2023-01-18T15:09:46.214Z,20.70
2023-01-18T15:12:21.301Z,20.70
2023-01-18T15:14:55.693Z,20.70
2023-01-18T15:17:29.914Z,20.70
2023-01-18T15:20:05.034Z,20.70
2023-01-18T15:22:39.944Z,20.70
2023-01-18T15:25:24.153Z,20.70
2023-01-18T15:27:58.528Z,20.70
2023-01-18T15:30:32.701Z,20.60
2023-01-18T15:33:06.102Z,20.60
2023-01-18T15:35:40.187Z,20.60
2023-01-18T15:38:14.585Z,20.60
2023-01-18T15:40:53.888Z,20.60
2023-01-18T15:43:32.635Z,20.60
2023-01-18T15:46:06.400Z,20.60
2023-01-18T15:48:41.072Z,20.60
2023-01-18T15:51:13.959Z,20.60
2023-01-18T15:53:52.685Z,20.50
2023-01-18T15:56:32.669Z,20.50
2023-01-18T15:59:08.532Z,20.50
2023-01-18T16:01:41.931Z,20.50
2023-01-18T16:04:23.344Z,20.50
2023-01-18T16:06:56.373Z,20.50
2023-01-18T16:09:29.807Z,20.50
2023-01-18T16:12:02.970Z,20.40
2023-01-18T16:14:40.618Z,20.40
2023-01-18T16:17:15.742Z,20.40
2023-01-18T16:19:50.840Z,20.40
2023-01-18T16:22:31.595Z,20.40
2023-01-18T16:25:15.518Z,20.30
2023-01-18T16:28:00.652Z,20.30
2023-01-18T16:30:35.912Z,20.30
2023-01-18T16:33:20.482Z,20.30
2023-01-18T16:35:53.517Z,20.20
2023-01-18T16:38:26.459Z,20.20
2023-01-18T16:41:00.734Z,20.20
2023-01-18T16:43:34.437Z,20.20
2023-01-18T16:46:07.546Z,20.20
2023-01-18T16:48:40.342Z,20.20
2023-01-18T16:51:19.022Z,20.20
2023-01-18T16:53:51.835Z,20.20
2023-01-18T16:56:25.419Z,20.20
2023-01-18T16:58:58.755Z,20.20
2023-01-18T17:01:32.530Z,20.10
2023-01-18T17:04:05.309Z,20.10
2023-01-18T17:06:38.141Z,20.10
2023-01-18T17:09:29.169Z,20.10
2023-01-18T17:12:02.056Z,20.10
2023-01-18T17:14:34.884Z,20.10
2023-01-18T17:17:10.792Z,20.10
2023-01-18T17:19:43.597Z,20.10
2023-01-18T17:22:16.798Z,20.10
2023-01-18T17:24:51.045Z,20.10
2023-01-18T17:27:23.875Z,20.10
2023-01-18T17:29:56.668Z,20.10
2023-01-18T17:32:29.652Z,20.10
2023-01-18T17:35:04.699Z,20.10
2023-01-18T17:40:17.141Z,20.10
2023-01-18T17:42:45.289Z,20.10
2023-01-18T17:45:18.089Z,20.10
2023-01-18T17:47:51.009Z,20.00
2023-01-18T17:50:27.269Z,20.00
2023-01-18T17:53:00.521Z,20.00
2023-01-18T17:55:34.979Z,20.00
2023-01-18T17:58:07.648Z,20.00
2023-01-18T18:00:41.497Z,20.00
2023-01-18T18:03:15.076Z,20.00
2023-01-18T18:05:47.937Z,20.00
2023-01-18T18:08:21.472Z,20.00
2023-01-18T18:10:54.418Z,20.00
2023-01-18T18:13:28.116Z,20.00
2023-01-18T18:16:01.097Z,20.00
2023-01-18T18:18:34.080Z,20.00
2023-01-18T18:21:08.172Z,20.00
2023-01-18T18:23:41.203Z,20.00
2023-01-18T18:26:14.193Z,20.00
2023-01-18T18:28:47.168Z,20.00
2023-01-18T18:31:20.522Z,20.00
2023-01-18T18:33:53.316Z,20.00
2023-01-18T18:36:27.376Z,20.00
2023-01-18T18:39:01.574Z,20.00
2023-01-18T18:41:34.512Z,20.00
2023-01-18T18:44:07.457Z,20.00
2023-01-18T18:46:40.405Z,20.00
2023-01-18T18:49:13.513Z,20.00
2023-01-18T18:51:46.536Z,20.00
2023-01-18T18:54:19.380Z,20.00
2023-01-18T18:56:52.247Z,20.00
2023-01-18T18:59:25.318Z,20.00
2023-01-18T19:01:59.675Z,20.00
2023-01-18T19:04:32.690Z,20.10
2023-01-18T19:07:06.851Z,20.10
2023-01-18T19:09:39.896Z,20.10
2023-01-18T19:12:13.029Z,20.10
2023-01-18T19:14:46.079Z,20.20
2023-01-18T19:17:29.778Z,20.20
2023-01-18T19:19:53.148Z,20.20
2023-01-18T19:22:26.067Z,20.20
2023-01-18T19:24:58.901Z,20.20
2023-01-18T19:27:31.896Z,20.20
2023-01-18T19:30:04.869Z,20.30
2023-01-18T19:32:38.152Z,20.30
2023-01-18T19:35:11.695Z,20.30
2023-01-18T19:37:44.552Z,20.30
2023-01-18T19:40:18.542Z,20.30
2023-01-18T19:42:56.384Z,20.30
2023-01-18T19:45:29.868Z,20.40
2023-01-18T19:48:03.895Z,20.40
2023-01-18T19:50:36.981Z,20.40
2023-01-18T19:53:10.160Z,20.50
2023-01-18T19:55:49.203Z,20.50
2023-01-18T19:58:22.071Z,20.60
2023-01-18T20:00:55.083Z,20.60
2023-01-18T20:03:28.089Z,20.70
2023-01-18T20:06:02.948Z,20.70
2023-01-18T20:08:36.223Z,20.80
2023-01-18T20:11:11.032Z,20.80
2023-01-18T20:13:48.372Z,20.90
2023-01-18T20:16:25.166Z,20.90
2023-01-18T20:18:58.149Z,20.90
2023-01-18T20:21:31.082Z,20.90
2023-01-18T20:24:04.022Z,20.90
2023-01-18T20:26:39.023Z,20.90
2023-01-18T20:29:19.376Z,21.00
2023-01-18T20:31:52.517Z,21.00
2023-01-18T20:34:26.108Z,21.00
2023-01-18T20:36:59.354Z,21.10
2023-01-18T20:39:32.424Z,21.10
2023-01-18T20:42:05.513Z,21.10
2023-01-18T20:44:38.598Z,21.10
2023-01-18T20:47:11.903Z,21.20
2023-01-18T20:49:44.777Z,21.20
2023-01-18T20:52:17.913Z,21.30
2023-01-18T20:54:51.886Z,21.30
2023-01-18T20:57:26.028Z,21.30
2023-01-18T20:59:59.050Z,21.30
2023-01-18T21:02:32.170Z,21.30
2023-01-18T21:05:05.678Z,21.40
2023-01-18T21:07:40.766Z,21.50
2023-01-18T21:10:14.559Z,21.50
2023-01-18T21:12:48.240Z,21.60
2023-01-18T21:15:21.260Z,21.60
2023-01-18T21:17:58.479Z,21.60
2023-01-18T21:20:32.750Z,21.70
2023-01-18T21:23:05.971Z,21.80
2023-01-18T21:25:39.064Z,21.80
2023-01-18T21:28:12.093Z,21.80
2023-01-18T21:30:46.135Z,21.80
2023-01-18T21:33:18.769Z,21.80
2023-01-18T21:35:52.048Z,21.80
2023-01-18T21:38:29.184Z,21.80
2023-01-18T21:41:03.350Z,21.90
2023-01-18T21:43:53.338Z,21.90
2023-01-18T21:46:26.265Z,21.90
2023-01-18T21:48:59.329Z,21.90
2023-01-18T21:51:49.882Z,22.00
2023-01-18T21:54:24.223Z,22.00
2023-01-18T21:56:56.970Z,22.00
2023-01-18T21:59:29.902Z,22.00
2023-01-18T22:02:03.020Z,22.10
2023-01-18T22:04:53.463Z,22.20
2023-01-18T22:07:26.873Z,22.20
2023-01-18T22:10:05.540Z,22.30
2023-01-18T22:12:38.991Z,22.40
2023-01-18T22:15:12.980Z,22.40
2023-01-18T22:17:46.008Z,22.50
2023-01-18T22:20:19.942Z,22.50
2023-01-18T22:22:52.918Z,22.50
2023-01-18T22:25:25.697Z,22.60
2023-01-18T22:27:58.624Z,22.80
2023-01-18T22:30:31.692Z,22.90
2023-01-18T22:33:04.573Z,22.90
2023-01-18T22:35:37.640Z,22.90
2023-01-18T22:38:11.698Z,23.00
2023-01-18T22:40:44.794Z,23.00
2023-01-18T22:43:19.775Z,23.00
2023-01-18T22:45:59.477Z,23.00
2023-01-18T22:48:35.661Z,23.10
2023-01-18T22:51:10.564Z,23.10
2023-01-18T22:53:43.995Z,23.10
2023-01-18T22:56:18.166Z,23.20
2023-01-18T22:58:51.669Z,23.20
2023-01-18T23:01:29.753Z,23.30
2023-01-18T23:04:04.842Z,23.30
2023-01-18T23:06:51.585Z,23.40
2023-01-18T23:09:24.453Z,23.50
2023-01-18T23:11:57.606Z,23.50
2023-01-18T23:14:48.399Z,23.60
2023-01-18T23:17:39.002Z,23.70
2023-01-18T23:20:13.498Z,23.70
2023-01-18T23:22:50.339Z,23.70
2023-01-18T23:25:23.383Z,23.70
2023-01-18T23:27:56.168Z,23.70
2023-01-18T23:30:29.013Z,23.80
2023-01-18T23:33:01.996Z,23.80
2023-01-18T23:35:34.930Z,23.80
2023-01-18T23:38:08.254Z,23.90
2023-01-18T23:40:58.328Z,23.90
2023-01-18T23:43:53.843Z,23.80
2023-01-18T23:46:44.294Z,23.90
2023-01-18T23:49:34.445Z,24.00
2023-01-18T23:52:25.041Z,24.00
2023-01-18T23:55:00.487Z,24.00
2023-01-18T23:57:33.711Z,24.00
